Time;durP1;ratioP1;P1;durP2;ratioP2;P2;SDS_P1;SDS_P2;PMS_P1;PMS_P2;Temp;Humidity;BMP_temperature;BMP_pressure;BME280_temperature;BME280_humidity;BME280_pressure;Samples;Min_cycle;Max_cycle;Signal;HPM_P1;HPM_P2
2022/08/19 00:00:27;;;;;;;4.10;2.10;;;17.00;99.90;;;;;;5072763;28;20320;-48
2022/08/19 00:02:53;;;;;;;3.22;1.88;;;17.00;99.90;;;;;;5072844;28;20086;-48
2022/08/19 00:05:20;;;;;;;2.53;2.33;;;16.80;99.90;;;;;;5073295;28;20040;-48
2022/08/19 00:07:47;;;;;;;2.83;1.38;;;16.80;99.90;;;;;;5072603;28;20036;-47
2022/08/19 00:10:14;;;;;;;;;;;16.80;99.90;;;;;;5071972;28;20704;-47
2022/08/19 00:12:40;;;;;;;4.03;2.72;;;16.80;99.90;;;;;;5073027;28;20297;-48
2022/08/19 00:15:11;;;;;;;3.47;3.17;;;16.70;99.90;;;;;;5072410;28;20553;-47
2022/08/19 00:17:38;;;;;;;8.02;3.65;;;16.60;99.90;;;;;;5071385;28;20242;-49
2022/08/19 00:20:04;;;;;;;5.03;2.85;;;16.60;99.90;;;;;;5072333;28;20046;-48
2022/08/19 00:22:30;;;;;;;4.10;3.72;;;16.60;99.90;;;;;;5072394;28;20051;-47
2022/08/19 00:24:55;;;;;;;4.38;2.90;;;16.60;99.90;;;;;;5072149;28;20040;-49
2022/08/19 00:27:21;;;;;;;5.18;3.67;;;16.60;99.90;;;;;;5072484;28;20032;-47
2022/08/19 00:29:46;;;;;;;5.80;3.60;;;16.60;99.90;;;;;;5072644;28;20067;-48
2022/08/19 00:32:12;;;;;;;3.83;3.45;;;16.60;99.90;;;;;;5069090;28;20029;-48
2022/08/19 00:34:37;;;;;;;6.25;5.65;;;16.50;99.90;;;;;;5071419;28;20075;-48
2022/08/19 00:37:03;;;;;;;5.13;4.65;;;16.50;99.90;;;;;;5072080;28;20048;-48
2022/08/19 00:39:29;;;;;;;22.92;4.10;;;16.50;99.90;;;;;;5072673;28;20024;-48
2022/08/19 00:41:56;;;;;;;41.75;4.25;;;16.40;99.90;;;;;;5071947;28;20029;-47
2022/08/19 00:44:25;;;;;;;24.77;2.65;;;16.40;99.90;;;;;;5072134;28;20520;-48
2022/08/19 00:46:52;;;;;;;4.40;1.20;;;16.30;99.90;;;;;;5071422;28;20041;-49
2022/08/19 00:49:24;;;;;;;3.75;2.20;;;16.30;99.90;;;;;;5071837;28;20059;-49
2022/08/19 00:51:54;;;;;;;5.25;4.38;;;16.30;99.90;;;;;;5071965;28;20032;-48
2022/08/19 00:54:21;;;;;;;6.53;5.60;;;16.20;99.90;;;;;;5071936;28;20070;-47
2022/08/19 00:56:47;;;;;;;;;;;16.30;99.90;;;;;;5072107;28;20049;-53
2022/08/19 00:59:14;;;;;;;12.05;6.70;;;16.30;99.90;;;;;;5072057;28;19920;-48
2022/08/19 01:01:43;;;;;;;9.55;6.75;;;16.30;99.90;;;;;;5071389;28;20059;-51
2022/08/19 01:04:09;;;;;;;10.90;6.30;;;16.30;99.90;;;;;;5071411;28;20050;-51
2022/08/19 01:06:37;;;;;;;6.28;5.68;;;16.30;99.90;;;;;;5071526;28;20048;-49
2022/08/19 01:09:04;;;;;;;10.80;6.25;;;16.20;99.90;;;;;;5070706;28;20449;-52
2022/08/19 01:11:33;;;;;;;7.43;5.18;;;16.10;99.90;;;;;;5071283;28;20095;-47
2022/08/19 01:13:58;;;;;;;7.82;6.50;;;16.10;99.90;;;;;;5071163;28;20052;-48
2022/08/19 01:16:27;;;;;;;7.35;6.70;;;16.20;99.90;;;;;;5070861;28;20037;-48
2022/08/19 01:18:53;;;;;;;7.45;6.60;;;16.20;99.90;;;;;;5071789;28;20037;-48
2022/08/19 01:21:28;;;;;;;8.68;7.78;;;16.20;99.90;;;;;;5070986;28;20048;-47
2022/08/19 01:23:53;;;;;;;7.85;7.05;;;16.20;99.90;;;;;;5071255;28;20042;-52
2022/08/19 01:26:23;;;;;;;10.30;7.50;;;16.20;99.90;;;;;;5071489;28;20040;-49
2022/08/19 01:28:51;;;;;;;12.65;10.20;;;16.20;99.90;;;;;;5071271;28;20040;-48
2022/08/19 01:31:21;;;;;;;10.88;9.73;;;16.30;99.90;;;;;;5071040;28;20034;-52
2022/08/19 01:33:47;;;;;;;11.63;9.10;;;16.40;99.90;;;;;;5071616;28;20033;-48
2022/08/19 01:36:15;;;;;;;;;;;16.40;99.90;;;;;;5072045;28;20036;-51
2022/08/19 01:38:42;;;;;;;;;;;16.40;99.90;;;;;;5071871;28;20307;-48
2022/08/19 01:41:08;;;;;;;7.35;6.65;;;16.40;99.90;;;;;;5071270;28;19923;-48
2022/08/19 01:43:34;;;;;;;5.80;5.38;;;16.40;99.90;;;;;;5069710;28;20037;-48
2022/08/19 01:46:00;;;;;;;5.47;0.55;;;16.40;99.90;;;;;;5071083;28;20037;-49
2022/08/19 01:48:26;;;;;;;1.98;1.88;;;16.30;99.90;;;;;;5071038;28;20481;-48
2022/08/19 01:50:52;;;;;;;2.33;2.13;;;16.20;99.90;;;;;;5071151;28;20043;-50
2022/08/19 01:53:17;;;;;;;6.28;2.75;;;16.20;99.90;;;;;;5070541;28;20044;-47
2022/08/19 01:55:43;;;;;;;10.27;3.97;;;16.10;99.90;;;;;;5071165;28;20108;-49
2022/08/19 01:58:14;;;;;;;3.92;2.10;;;16.00;99.90;;;;;;5070671;28;20486;-48
2022/08/19 02:00:41;;;;;;;5.63;4.45;;;16.00;99.90;;;;;;5070665;28;20048;-48
2022/08/19 02:03:08;;;;;;;7.35;4.70;;;15.90;99.90;;;;;;5070266;28;20075;-47
2022/08/19 02:05:34;;;;;;;3.38;3.17;;;15.80;99.90;;;;;;5070671;28;20148;-48
2022/08/19 02:07:59;;;;;;;3.70;3.47;;;15.80;99.90;;;;;;5069968;28;20604;-48
2022/08/19 02:10:25;;;;;;;2.75;2.55;;;15.70;99.90;;;;;;5070310;28;20398;-47
2022/08/19 02:12:51;;;;;;;6.22;3.47;;;15.60;99.90;;;;;;5069831;28;20043;-47
2022/08/19 02:15:19;;;;;;;3.47;2.97;;;15.50;99.90;;;;;;5069843;28;20522;-48
2022/08/19 02:17:45;;;;;;;4.32;3.95;;;15.50;99.90;;;;;;5070020;28;20040;-48
2022/08/19 02:20:12;;;;;;;3.10;2.80;;;15.40;99.90;;;;;;5069141;28;20405;-48
2022/08/19 02:22:40;;;;;;;2.75;2.55;;;15.30;99.90;;;;;;5069223;28;20232;-47
2022/08/19 02:25:06;;;;;;;2.70;2.50;;;15.30;99.90;;;;;;5069562;28;20041;-49
2022/08/19 02:27:33;;;;;;;2.30;2.10;;;15.30;99.90;;;;;;5070052;28;20108;-48
2022/08/19 02:29:59;;;;;;;3.38;1.77;;;15.30;99.90;;;;;;5070366;28;20048;-47
2022/08/19 02:32:24;;;;;;;2.00;1.52;;;15.40;99.90;;;;;;5070525;28;20094;-48
2022/08/19 02:34:50;;;;;;;1.60;1.25;;;15.40;99.90;;;;;;5069451;28;20072;-49
2022/08/19 02:39:59;;;;;;;2.28;1.13;;;15.30;99.90;;;;;;5069438;28;20052;-47
2022/08/19 02:42:25;;;;;;;2.15;2.05;;;15.40;99.90;;;;;;5070105;28;20040;-48
2022/08/19 02:44:51;;;;;;;3.72;3.35;;;15.40;99.90;;;;;;5068063;28;20072;-49
2022/08/19 02:47:18;;;;;;;5.88;5.38;;;15.40;99.90;;;;;;5068408;28;20040;-47
2022/08/19 02:49:45;;;;;;;5.95;5.18;;;15.40;99.90;;;;;;5069880;28;20028;-47
2022/08/19 02:52:11;;;;;;;4.70;4.30;;;15.50;99.90;;;;;;5070129;28;20279;-47
2022/08/19 02:54:38;;;;;;;;;;;15.50;99.90;;;;;;5070315;28;20036;-47
2022/08/19 02:57:04;;;;;;;3.43;1.40;;;15.60;99.90;;;;;;5069623;28;19920;-50
2022/08/19 02:59:30;;;;;;;2.42;2.22;;;15.50;99.90;;;;;;5069557;28;20046;-48
2022/08/19 03:01:56;;;;;;;4.63;3.67;;;15.50;99.90;;;;;;5070196;28;20047;-48
2022/08/19 03:04:22;;;;;;;4.95;3.30;;;15.40;99.90;;;;;;5069336;28;20040;-48
2022/08/19 03:06:49;;;;;;;2.53;2.33;;;15.40;99.90;;;;;;5067653;28;20453;-47
2022/08/19 03:09:14;;;;;;;;;;;15.30;99.90;;;;;;5070878;28;20056;-47
2022/08/19 03:11:40;;;;;;;5.97;3.45;;;15.30;99.90;;;;;;5070538;28;20384;-48
2022/08/19 03:14:07;;;;;;;4.18;1.35;;;15.20;99.90;;;;;;5069991;28;20064;-49
2022/08/19 03:16:40;;;;;;;2.25;1.85;;;15.20;99.90;;;;;;5069823;28;20094;-48
2022/08/19 03:19:06;;;;;;;1.73;1.63;;;15.20;99.90;;;;;;5067472;28;20032;-48
2022/08/19 03:21:33;;;;;;;1.35;1.20;;;15.10;99.90;;;;;;5069354;28;20083;-47
2022/08/19 03:24:05;;;;;;;0.75;0.65;;;15.10;99.90;;;;;;5069467;28;20075;-48
2022/08/19 03:26:31;;;;;;;0.52;0.35;;;15.00;99.90;;;;;;5069564;28;20066;-48
2022/08/19 03:28:57;;;;;;;6.45;1.48;;;14.90;99.90;;;;;;5069325;28;20046;-47
2022/08/19 03:31:26;;;;;;;1.30;0.60;;;14.80;99.90;;;;;;5069741;28;20489;-48
2022/08/19 03:33:52;;;;;;;2.35;1.00;;;14.80;99.90;;;;;;5069620;28;20075;-47
2022/08/19 03:36:24;;;;;;;0.80;0.57;;;14.70;99.90;;;;;;5073620;28;20444;-47
2022/08/19 03:38:54;;;;;;;0.77;0.20;;;14.70;99.90;;;;;;5073238;28;20044;-47
2022/08/19 03:41:22;;;;;;;2.38;1.33;;;14.60;99.90;;;;;;5072100;28;20048;-47
2022/08/19 03:43:49;;;;;;;5.30;4.63;;;14.60;99.90;;;;;;5072751;28;20544;-48
2022/08/19 03:46:20;;;;;;;4.78;3.97;;;14.60;99.90;;;;;;5072873;28;20428;-47
2022/08/19 03:48:46;;;;;;;58.25;4.53;;;14.60;99.90;;;;;;5073083;28;20043;-48
2022/08/19 03:51:21;;;;;;;4.72;1.77;;;14.50;99.90;;;;;;5073288;28;20120;-47
2022/08/19 03:53:47;;;;;;;124.40;7.28;;;14.50;99.90;;;;;;5073065;28;20107;-47
2022/08/19 03:56:14;;;;;;;45.88;5.95;;;14.40;99.90;;;;;;5072714;28;20047;-47
2022/08/19 03:58:40;;;;;;;17.17;3.97;;;14.40;99.90;;;;;;5072046;28;20500;-47
2022/08/19 04:01:11;;;;;;;4.88;3.65;;;14.40;99.90;;;;;;5072583;28;20041;-47
2022/08/19 04:03:38;;;;;;;3.20;2.90;;;14.30;99.90;;;;;;5073096;28;20237;-48
2022/08/19 04:06:12;;;;;;;4.10;3.75;;;14.30;99.90;;;;;;5072411;28;20436;-47
2022/08/19 04:08:39;;;;;;;1.83;1.73;;;14.30;99.90;;;;;;5073442;28;20047;-48
2022/08/19 04:11:21;;;;;;;3.80;3.50;;;14.30;99.90;;;;;;5071275;28;20043;-48
2022/08/19 04:13:47;;;;;;;4.07;3.55;;;14.30;99.90;;;;;;5072393;28;20036;-48
2022/08/19 04:16:13;;;;;;;4.43;4.03;;;14.40;99.90;;;;;;5072803;28;20051;-47
2022/08/19 04:18:40;;;;;;;13.02;6.57;;;14.40;99.90;;;;;;5072604;28;20048;-47
2022/08/19 04:21:07;;;;;;;4.65;4.25;;;14.50;99.90;;;;;;5072307;28;20048;-47
2022/08/19 04:23:35;;;;;;;5.07;4.07;;;14.50;99.90;;;;;;5072151;28;20124;-47
2022/08/19 04:26:02;;;;;;;5.47;5.03;;;14.50;99.90;;;;;;5072073;28;20080;-47
2022/08/19 04:28:28;;;;;;;5.00;4.55;;;14.50;99.90;;;;;;5072787;28;20032;-48
2022/08/19 04:30:54;;;;;;;4.82;3.50;;;14.50;99.90;;;;;;5071951;28;20471;-47
2022/08/19 04:33:23;;;;;;;4.20;3.80;;;14.50;99.90;;;;;;5072579;28;20042;-47
2022/08/19 04:35:51;;;;;;;4.47;3.67;;;14.50;99.90;;;;;;5072236;28;20044;-48
2022/08/19 04:38:20;;;;;;;4.75;3.55;;;14.50;99.90;;;;;;5072186;28;20094;-47
2022/08/19 04:43:33;;;;;;;2.70;2.50;;;14.40;99.90;;;;;;5072001;28;20048;-48
2022/08/19 04:46:11;;;;;;;2.33;2.13;;;14.50;99.90;;;;;;5065900;28;20123;-49
2022/08/19 04:48:38;;;;;;;3.97;2.53;;;14.40;99.90;;;;;;5071790;28;20040;-48
2022/08/19 04:51:07;;;;;;;2.78;2.53;;;14.50;99.90;;;;;;5071832;28;20405;-47
2022/08/19 04:53:34;;;;;;;2.58;2.38;;;14.50;99.90;;;;;;5073982;28;20035;-46
2022/08/19 04:56:06;;;;;;;2.30;2.10;;;14.40;99.90;;;;;;5071819;28;20040;-48
2022/08/19 04:58:32;;;;;;;3.97;3.25;;;14.40;99.90;;;;;;5072289;28;20036;-47
2022/08/19 05:00:59;;;;;;;6.07;5.43;;;14.50;99.90;;;;;;5071804;28;20044;-47
2022/08/19 05:03:26;;;;;;;8.45;6.65;;;14.50;99.90;;;;;;5071386;28;20040;-45
2022/08/19 05:05:52;;;;;;;5.50;4.95;;;14.50;99.90;;;;;;5063163;28;20044;-47
2022/08/19 05:08:20;;;;;;;4.20;3.63;;;14.50;99.90;;;;;;5072269;28;20043;-48
2022/08/19 05:10:50;;;;;;;5.90;3.05;;;14.60;99.90;;;;;;5071507;28;20455;-46
2022/08/19 05:13:18;;;;;;;4.15;3.38;;;14.60;99.90;;;;;;5071402;28;20557;-46
2022/08/19 05:15:57;;;;;;;3.58;3.28;;;14.60;99.90;;;;;;5071139;28;20072;-48
2022/08/19 05:24:08;;;;;;;8.20;3.72;;;14.70;99.90;;;;;;5031047;28;20045;-44
2022/08/19 05:26:35;;;;;;;3.60;3.25;;;14.70;99.90;;;;;;5061934;28;20048;-46
2022/08/19 05:29:01;;;;;;;16.60;4.53;;;14.70;99.90;;;;;;5071652;28;20043;-47
2022/08/19 05:31:26;;;;;;;5.82;3.63;;;14.70;99.90;;;;;;5071125;28;20397;-46
2022/08/19 05:33:52;;;;;;;4.95;3.40;;;14.70;99.90;;;;;;5070439;28;20566;-45
2022/08/19 05:36:19;;;;;;;4.55;4.15;;;14.70;99.90;;;;;;5066057;28;20131;-47
2022/08/19 05:38:45;;;;;;;3.83;3.53;;;14.70;99.90;;;;;;5064571;28;20052;-46
2022/08/19 05:41:12;;;;;;;7.97;5.55;;;14.80;99.90;;;;;;5051477;28;20403;-46
2022/08/19 05:43:38;;;;;;;4.32;3.92;;;14.80;99.90;;;;;;5064069;28;20417;-47
2022/08/19 05:46:05;;;;;;;4.10;3.80;;;14.80;99.90;;;;;;5070508;28;20033;-47
2022/08/19 05:48:32;;;;;;;4.50;4.10;;;14.80;99.90;;;;;;5070956;28;20059;-48
2022/08/19 05:50:59;;;;;;;3.92;3.65;;;14.80;99.90;;;;;;5070727;28;20052;-47
2022/08/19 05:53:25;;;;;;;5.95;5.00;;;14.80;99.90;;;;;;5069923;28;20068;-47
2022/08/19 05:55:50;;;;;;;5.00;4.53;;;14.80;99.90;;;;;;5066874;28;20068;-45
2022/08/19 05:58:17;;;;;;;5.97;5.50;;;14.90;99.90;;;;;;5070955;28;20120;-51
2022/08/19 06:00:43;;;;;;;;;;;15.00;99.90;;;;;;5070694;28;20631;-51
2022/08/19 06:03:09;;;;;;;7.47;6.88;;;15.10;99.90;;;;;;5050868;28;19927;-51
2022/08/19 06:05:34;;;;;;;7.82;6.35;;;15.30;99.90;;;;;;5050889;28;20513;-48
2022/08/19 06:08:00;;;;;;;8.75;7.85;;;15.40;99.90;;;;;;5050177;28;20033;-53
2022/08/19 06:10:26;;;;;;;11.52;8.68;;;15.60;99.90;;;;;;5051130;28;20494;-52
2022/08/19 06:12:52;;;;;;;9.48;7.30;;;15.70;99.90;;;;;;5050535;28;20063;-48
2022/08/19 06:15:17;;;;;;;10.25;9.07;;;15.80;99.90;;;;;;5070765;28;20072;-49
2022/08/19 06:17:44;;;;;;;12.55;11.32;;;15.90;99.90;;;;;;5070410;28;20118;-51
2022/08/19 06:20:13;;;;;;;12.00;10.80;;;16.00;99.90;;;;;;5070693;28;20048;-53
2022/08/19 06:22:48;;;;;;;20.58;12.52;;;16.10;99.90;;;;;;5070093;28;20049;-50
2022/08/19 06:25:14;;;;;;;19.02;14.65;;;16.30;99.90;;;;;;5069830;28;20041;-48
2022/08/19 06:27:40;;;;;;;18.65;14.05;;;16.50;99.90;;;;;;5070048;28;20413;-48
2022/08/19 06:30:06;;;;;;;;;;;16.60;99.90;;;;;;5069614;28;20070;-47
2022/08/19 06:32:31;;;;;;;24.20;18.80;;;16.80;99.90;;;;;;5070252;28;20412;-49
2022/08/19 06:34:57;;;;;;;24.40;18.35;;;17.00;99.90;;;;;;5069407;28;20048;-48
2022/08/19 06:37:23;;;;;;;26.30;18.60;;;17.10;99.90;;;;;;5069368;28;20466;-47
2022/08/19 06:39:49;;;;;;;25.77;20.83;;;17.30;99.90;;;;;;5070435;28;20047;-47
2022/08/19 06:42:18;;;;;;;;;;;17.50;99.90;;;;;;5070514;28;20041;-48
2022/08/19 06:44:49;;;;;;;24.33;19.35;;;17.60;99.90;;;;;;5060106;28;20011;-47
2022/08/19 06:47:17;;;;;;;27.05;19.70;;;17.70;99.90;;;;;;5070385;28;20098;-48
2022/08/19 06:49:43;;;;;;;21.38;17.83;;;17.80;99.90;;;;;;5069334;28;20040;-48
2022/08/19 06:52:12;;;;;;;32.03;20.40;;;17.90;99.90;;;;;;5070532;28;20474;-48
2022/08/19 06:54:39;;;;;;;26.48;18.55;;;18.10;99.90;;;;;;5069388;28;20040;-48
2022/08/19 06:57:06;;;;;;;24.95;19.40;;;18.10;99.90;;;;;;5063535;28;20642;-47
2022/08/19 06:59:33;;;;;;;24.77;18.02;;;18.20;99.90;;;;;;5077333;28;20090;-47
2022/08/19 07:02:04;;;;;;;24.30;18.50;;;18.40;99.90;;;;;;5082807;28;20101;-47
2022/08/19 07:04:32;;;;;;;23.55;17.52;;;18.50;99.90;;;;;;5074005;28;20080;-47
2022/08/19 07:07:09;;;;;;;20.25;17.38;;;18.60;99.90;;;;;;5077032;28;20040;-48
2022/08/19 07:09:38;;;;;;;21.42;18.00;;;18.60;99.90;;;;;;5079818;28;20042;-47
2022/08/19 07:12:06;;;;;;;18.80;16.80;;;18.70;99.90;;;;;;5078746;28;20032;-49
2022/08/19 07:14:32;;;;;;;22.02;17.67;;;18.80;99.90;;;;;;5074641;28;20188;-48
2022/08/19 07:16:58;;;;;;;20.17;17.45;;;18.90;99.90;;;;;;5078334;28;20040;-48
2022/08/19 07:19:28;;;;;;;25.15;17.95;;;19.00;99.90;;;;;;5076406;28;20578;-48
2022/08/19 07:21:55;;;;;;;18.70;15.63;;;19.10;99.90;;;;;;5083082;28;20085;-48
2022/08/19 07:24:25;;;;;;;17.90;16.00;;;19.10;99.90;;;;;;5084094;28;20078;-48
2022/08/19 07:26:54;;;;;;;22.98;16.85;;;19.20;99.90;;;;;;5087435;28;20055;-48
2022/08/19 07:29:22;;;;;;;19.17;17.13;;;19.30;99.90;;;;;;5084191;28;20037;-48
2022/08/19 07:31:50;;;;;;;19.50;17.38;;;19.30;99.90;;;;;;5079607;28;20119;-48
2022/08/19 07:34:16;;;;;;;21.50;16.85;;;19.40;99.90;;;;;;5076394;28;20048;-49
2022/08/19 07:36:43;;;;;;;21.42;18.05;;;19.40;99.90;;;;;;5086288;28;20539;-49
2022/08/19 07:39:15;;;;;;;19.58;16.73;;;19.50;99.90;;;;;;5087115;28;20044;-48
2022/08/19 07:41:41;;;;;;;22.25;17.63;;;19.60;99.90;;;;;;5084816;28;20413;-49
2022/08/19 07:44:08;;;;;;;20.58;15.90;;;19.70;99.90;;;;;;5079357;28;20040;-50
2022/08/19 07:46:37;;;;;;;23.08;17.27;;;19.90;99.90;;;;;;5086182;28;20115;-50
2022/08/19 07:49:03;;;;;;;23.70;18.02;;;20.00;99.90;;;;;;5083777;28;20103;-49
2022/08/19 07:51:29;;;;;;;19.65;16.95;;;20.20;99.90;;;;;;5083021;28;20051;-49
2022/08/19 07:53:55;;;;;;;19.40;17.02;;;20.30;99.90;;;;;;5088043;28;20032;-48
2022/08/19 07:56:21;;;;;;;;;;;20.40;99.90;;;;;;5082449;28;20029;-50
2022/08/19 07:58:50;;;;;;;18.90;16.90;;;20.50;99.90;;;;;;5088019;28;19916;-48
2022/08/19 08:01:23;;;;;;;19.00;14.55;;;20.60;99.90;;;;;;5083164;28;20040;-48
2022/08/19 08:09:32;;;;;;;15.90;14.30;;;21.10;99.90;;;;;;5069135;28;20044;-47
2022/08/19 08:12:09;;;;;;;17.35;15.07;;;21.30;99.90;;;;;;5067985;28;20448;-49
2022/08/19 08:14:56;;;;;;;16.98;14.40;;;21.40;99.90;;;;;;5069109;28;20246;-50
2022/08/19 08:17:23;;;;;;;;;;;21.60;99.90;;;;;;5060302;28;20614;-49
2022/08/19 08:19:50;;;;;;;16.27;13.55;;;21.70;99.90;;;;;;5069143;28;19916;-49
2022/08/19 08:25:13;;;;;;;15.70;13.32;;;22.10;99.90;;;;;;5037165;28;20048;-48
2022/08/19 08:27:41;;;;;;;12.50;11.30;;;22.20;99.90;;;;;;5071413;28;20036;-49
2022/08/19 08:30:11;;;;;;;18.13;12.63;;;22.40;99.90;;;;;;5072648;28;20498;-48
2022/08/19 08:32:38;;;;;;;15.35;13.48;;;22.50;99.90;;;;;;5072762;28;20068;-49
2022/08/19 08:35:11;;;;;;;17.10;13.32;;;22.60;99.90;;;;;;5072253;28;20037;-49
2022/08/19 08:37:36;;;;;;;13.90;12.52;;;22.70;99.90;;;;;;5068241;28;20120;-49
2022/08/19 08:40:08;;;;;;;;;;;22.80;99.90;;;;;;5070926;28;20108;-48
2022/08/19 08:42:39;;;;;;;20.25;13.82;;;22.90;99.90;;;;;;5071226;28;19924;-48
2022/08/19 08:45:14;;;;;;;16.27;13.07;;;23.00;99.90;;;;;;5063370;28;20039;-48
2022/08/19 08:47:42;;;;;;;17.05;14.25;;;23.10;99.90;;;;;;5060210;28;20037;-49
2022/08/19 08:50:15;;;;;;;15.23;13.18;;;23.10;99.90;;;;;;5052443;28;20053;-49
2022/08/19 08:52:45;;;;;;;14.20;12.40;;;23.30;99.90;;;;;;5065271;28;20453;-49
2022/08/19 08:55:17;;;;;;;16.23;14.70;;;23.40;99.90;;;;;;5072436;28;20102;-48
2022/08/19 08:57:48;;;;;;;18.60;14.02;;;23.50;99.90;;;;;;5071385;28;20040;-51
2022/08/19 09:00:22;;;;;;;13.68;12.48;;;23.50;99.90;;;;;;5071894;28;20043;-49
2022/08/19 09:02:48;;;;;;;12.75;11.32;;;23.50;99.90;;;;;;5071946;28;20040;-49
2022/08/19 09:05:13;;;;;;;16.05;11.52;;;23.60;99.90;;;;;;5070726;28;20087;-50
2022/08/19 09:08:02;;;;;;;16.70;12.45;;;23.70;99.90;;;;;;5072194;28;20037;-52
2022/08/19 09:10:48;;;;;;;14.57;12.30;;;23.80;99.90;;;;;;5071830;28;20040;-51
2022/08/19 09:13:23;;;;;;;11.73;10.63;;;23.90;99.90;;;;;;5071477;28;20502;-53
2022/08/19 09:15:57;;;;;;;13.93;12.48;;;24.00;99.90;;;;;;5071807;28;20201;-53
2022/08/19 09:18:23;;;;;;;14.27;12.77;;;24.10;99.90;;;;;;5071414;28;20516;-53
2022/08/19 09:20:48;;;;;;;16.63;14.82;;;24.10;99.90;;;;;;5071606;28;20044;-51
2022/08/19 09:23:15;;;;;;;16.13;14.25;;;24.20;99.90;;;;;;5070641;28;20047;-54
2022/08/19 09:25:41;;;;;;;15.20;13.60;;;24.30;99.90;;;;;;5067481;28;20033;-51
2022/08/19 09:28:07;;;;;;;14.88;13.13;;;24.30;99.70;;;;;;5069876;28;20452;-50
2022/08/19 09:30:39;;;;;;;14.63;13.15;;;24.40;99.30;;;;;;5071119;28;20053;-51
2022/08/19 09:33:05;;;;;;;15.07;13.68;;;24.40;99.30;;;;;;5071046;28;20071;-51
2022/08/19 09:35:32;;;;;;;18.40;13.88;;;24.50;99.20;;;;;;5070824;28;20083;-51
2022/08/19 09:37:59;;;;;;;15.07;13.52;;;24.60;99.00;;;;;;5070298;28;20490;-51
2022/08/19 09:40:26;;;;;;;14.68;12.75;;;24.70;99.00;;;;;;5070090;28;20037;-50
2022/08/19 09:42:52;;;;;;;13.88;12.57;;;24.80;99.00;;;;;;5070613;28;20173;-53
2022/08/19 09:45:22;;;;;;;14.48;13.00;;;24.90;98.70;;;;;;5071319;28;20124;-52
2022/08/19 09:47:53;;;;;;;13.77;12.35;;;25.00;98.50;;;;;;5070915;28;20036;-51
2022/08/19 09:50:18;;;;;;;31.20;16.05;;;25.20;97.90;;;;;;5070727;28;20135;-51
2022/08/19 09:52:45;;;;;;;16.50;14.82;;;25.20;97.80;;;;;;5070531;28;20043;-51
2022/08/19 09:55:11;;;;;;;18.50;16.23;;;25.30;98.10;;;;;;5070589;28;20036;-50
2022/08/19 09:57:38;;;;;;;20.65;18.13;;;25.30;97.20;;;;;;5068110;28;20036;-50
2022/08/19 10:00:06;;;;;;;20.60;16.13;;;25.30;97.40;;;;;;5065667;28;20040;-50
2022/08/19 10:02:32;;;;;;;17.45;15.68;;;25.30;97.10;;;;;;5070459;28;20114;-52
2022/08/19 10:07:42;;;;;;;13.80;12.57;;;25.40;97.10;;;;;;5069754;28;20502;-55
2022/08/19 10:10:09;;;;;;;12.05;10.95;;;25.40;96.90;;;;;;5071592;28;20044;-50
2022/08/19 10:12:35;;;;;;;13.20;11.93;;;25.50;96.30;;;;;;5071011;28;20040;-53
2022/08/19 10:15:01;;;;;;;14.43;12.45;;;25.60;96.30;;;;;;5070328;28;20067;-52
2022/08/19 10:17:27;;;;;;;12.57;11.27;;;25.70;96.20;;;;;;5066811;28;20036;-52
2022/08/19 10:19:53;;;;;;;11.80;10.57;;;25.90;96.00;;;;;;5070423;28;20091;-51
2022/08/19 10:22:19;;;;;;;14.95;13.45;;;26.00;95.50;;;;;;5069471;28;20111;-49
2022/08/19 10:24:49;;;;;;;11.02;9.82;;;26.00;95.30;;;;;;5070189;28;20067;-49
2022/08/19 10:27:14;;;;;;;11.57;9.50;;;26.10;95.10;;;;;;5070281;28;20062;-49
2022/08/19 10:29:40;;;;;;;12.02;10.88;;;26.20;94.90;;;;;;5070347;28;20045;-48
2022/08/19 10:32:08;;;;;;;11.63;10.40;;;26.20;94.50;;;;;;5070145;28;20497;-49
2022/08/19 10:34:35;;;;;;;13.90;9.25;;;26.20;94.30;;;;;;5069376;28;20032;-50
2022/08/19 10:37:04;;;;;;;9.68;8.68;;;26.30;94.10;;;;;;5065514;28;20051;-50
2022/08/19 10:39:34;;;;;;;12.45;10.20;;;26.30;93.30;;;;;;5070411;28;20078;-50
2022/08/19 10:42:07;;;;;;;10.48;9.57;;;26.30;93.00;;;;;;5069402;28;20520;-51
2022/08/19 10:44:35;;;;;;;11.82;10.77;;;26.30;92.90;;;;;;5067985;28;20509;-49
2022/08/19 10:47:01;;;;;;;12.57;9.95;;;26.20;91.90;;;;;;5067213;28;20044;-50
2022/08/19 10:49:27;;;;;;;9.70;8.38;;;26.20;92.70;;;;;;5069381;28;20047;-49
2022/08/19 10:57:24;;;;;;;10.10;9.10;;;26.60;92.30;;;;;;5069541;28;20493;-50
2022/08/19 10:59:49;;;;;;;10.32;9.07;;;26.60;92.30;;;;;;5069216;28;20572;-50
2022/08/19 11:02:15;;;;;;;10.32;9.32;;;26.70;91.90;;;;;;5069797;28;20040;-53
2022/08/19 11:04:40;;;;;;;7.82;7.20;;;26.80;91.50;;;;;;5069161;28;20182;-49
2022/08/19 11:07:06;;;;;;;7.00;6.40;;;26.90;91.40;;;;;;5069891;28;20501;-51
2022/08/19 11:09:39;;;;;;;10.23;9.25;;;27.00;91.00;;;;;;5069396;28;20398;-52
2022/08/19 11:12:04;;;;;;;7.43;6.82;;;27.00;90.10;;;;;;5069585;28;20037;-51
2022/08/19 11:14:32;;;;;;;8.90;8.07;;;27.00;90.40;;;;;;5068946;28;20090;-51
2022/08/19 11:16:57;;;;;;;9.23;8.32;;;27.00;90.50;;;;;;5069876;28;20059;-53
2022/08/19 11:19:23;;;;;;;8.57;7.95;;;27.10;89.80;;;;;;5068328;28;20442;-49
2022/08/19 11:21:50;;;;;;;9.68;8.50;;;27.20;90.10;;;;;;5069516;28;20095;-49
2022/08/19 11:24:20;;;;;;;10.00;8.35;;;27.20;88.50;;;;;;5069314;28;20045;-51
2022/08/19 11:26:49;;;;;;;11.48;9.73;;;27.00;87.80;;;;;;5065135;28;20044;-50
2022/08/19 11:29:15;;;;;;;9.32;8.52;;;27.10;87.80;;;;;;5059127;28;20035;-50
2022/08/19 11:31:44;;;;;;;11.23;10.20;;;27.10;88.70;;;;;;5069757;28;20408;-51
2022/08/19 11:34:13;;;;;;;11.23;10.23;;;27.30;87.90;;;;;;5069214;28;20037;-49
2022/08/19 11:36:42;;;;;;;10.98;9.98;;;27.30;87.50;;;;;;5069424;28;20048;-51
2022/08/19 11:39:09;;;;;;;10.43;8.27;;;27.20;87.40;;;;;;5069731;28;20080;-51
2022/08/19 11:41:35;;;;;;;12.93;9.27;;;27.30;88.30;;;;;;5069154;28;20080;-52
2022/08/19 11:44:02;;;;;;;27.13;8.70;;;27.30;88.20;;;;;;5066542;28;20068;-50
2022/08/19 11:46:31;;;;;;;9.77;8.90;;;27.40;88.70;;;;;;5067928;28;20040;-50
2022/08/19 11:48:59;;;;;;;8.57;7.72;;;27.30;87.70;;;;;;5068650;28;20498;-50
2022/08/19 11:51:26;;;;;;;11.38;10.10;;;27.20;87.60;;;;;;5069800;28;20167;-51
2022/08/19 11:53:53;;;;;;;7.93;7.13;;;27.00;86.80;;;;;;5067336;28;20713;-50
2022/08/19 11:56:20;;;;;;;10.35;7.05;;;27.10;88.50;;;;;;5070716;28;20094;-50
2022/08/19 11:58:46;;;;;;;8.07;6.20;;;27.10;88.10;;;;;;5073442;28;20062;-52
2022/08/19 12:01:15;;;;;;;6.25;5.72;;;27.30;88.40;;;;;;5072860;28;20171;-52
2022/08/19 12:03:41;;;;;;;7.85;7.05;;;27.30;88.30;;;;;;5072757;28;20505;-50
2022/08/19 12:06:13;;;;;;;9.88;7.95;;;27.50;86.80;;;;;;5072805;28;20542;-51
2022/08/19 12:08:39;;;;;;;12.73;7.20;;;27.50;86.00;;;;;;5072473;28;20036;-51
2022/08/19 12:11:07;;;;;;;8.48;7.68;;;27.60;85.90;;;;;;5072651;28;20041;-51
2022/08/19 12:13:34;;;;;;;9.07;7.30;;;27.70;85.70;;;;;;5072667;28;20037;-50
2022/08/19 12:15:59;;;;;;;7.90;7.18;;;27.80;85.40;;;;;;5072310;28;20119;-51
2022/08/19 12:18:25;;;;;;;7.40;6.80;;;27.80;84.20;;;;;;5072521;28;20111;-50
2022/08/19 12:20:52;;;;;;;10.80;7.43;;;27.80;84.70;;;;;;5072235;28;20036;-50
2022/08/19 12:23:18;;;;;;;8.00;5.18;;;27.70;84.30;;;;;;5068125;28;20065;-50
2022/08/19 12:25:51;;;;;;;7.72;7.03;;;27.70;84.60;;;;;;5072376;28;20124;-50
2022/08/19 12:28:19;;;;;;;10.32;7.93;;;27.80;84.10;;;;;;5072465;28;20046;-62
2022/08/19 12:30:45;;;;;;;7.60;7.00;;;27.80;82.40;;;;;;5072369;28;20041;-50
2022/08/19 12:33:11;;;;;;;9.07;7.63;;;27.80;83.10;;;;;;5072346;28;20044;-49
2022/08/19 12:35:43;;;;;;;7.68;6.97;;;27.80;82.40;;;;;;5071826;28;20032;-50
2022/08/19 12:38:10;;;;;;;7.53;6.82;;;27.80;81.00;;;;;;5072299;28;20448;-50
2022/08/19 12:40:35;;;;;;;4.50;4.20;;;27.80;82.50;;;;;;5072353;28;20047;-49
2022/08/19 12:43:01;;;;;;;6.03;4.85;;;27.90;82.60;;;;;;5070727;28;20036;-48
2022/08/19 12:45:27;;;;;;;7.57;4.93;;;28.00;81.90;;;;;;5069154;28;20056;-50
2022/08/19 12:47:52;;;;;;;5.72;5.32;;;28.10;81.80;;;;;;5072116;28;20111;-50
2022/08/19 12:50:21;;;;;;;6.07;4.35;;;28.20;81.50;;;;;;5071558;28;20048;-50
2022/08/19 12:52:47;;;;;;;6.05;5.45;;;28.30;80.20;;;;;;5072088;28;20040;-50
2022/08/19 12:55:13;;;;;;;5.15;4.75;;;28.30;80.00;;;;;;5071861;28;20082;-50
2022/08/19 12:57:40;;;;;;;6.80;6.10;;;28.40;79.80;;;;;;5072469;28;20041;-50
2022/08/19 13:00:13;;;;;;;10.40;9.18;;;28.20;79.00;;;;;;5072326;28;20124;-52
2022/08/19 13:02:40;;;;;;;11.55;9.02;;;28.20;79.60;;;;;;5071573;28;20048;-50
2022/08/19 13:05:08;;;;;;;7.82;7.13;;;28.10;80.30;;;;;;5071336;28;20043;-52
2022/08/19 13:07:34;;;;;;;8.30;7.55;;;28.10;80.30;;;;;;5071002;28;20040;-50
2022/08/19 13:10:00;;;;;;;8.93;7.47;;;27.90;80.30;;;;;;5071947;28;20041;-50
2022/08/19 13:12:26;;;;;;;10.95;6.47;;;27.80;80.10;;;;;;5070276;28;20052;-54